Time;durP1;ratioP1;P1;durP2;ratioP2;P2;SDS_P1;SDS_P2;PMS_P1;PMS_P2;Temp;Humidity;BMP_temperature;BMP_pressure;BME280_temperature;BME280_humidity;BME280_pressure;Samples;Min_cycle;Max_cycle;Signal;HPM_P1;HPM_P2
2024/02/28 00:02:07;;;;;;;13.80;6.03;;;;;;;9.62;98.22;100377.63;5096559;28;20032;-65
2024/02/28 00:04:33;;;;;;;14.38;6.47;;;;;;;9.73;97.95;100386.25;5097585;28;20040;-64
2024/02/28 00:06:59;;;;;;;11.70;5.55;;;;;;;9.81;96.84;100382.88;5097467;28;20238;-66
2024/02/28 00:09:24;;;;;;;12.98;6.10;;;;;;;9.63;97.47;100390.69;5097895;28;20024;-66
2024/02/28 00:11:49;;;;;;;11.05;5.93;;;;;;;9.52;97.55;100382.91;5097258;28;20075;-65
2024/02/28 00:14:15;;;;;;;13.18;6.28;;;;;;;9.11;99.22;100381.34;5097598;28;20141;-66
2024/02/28 00:16:45;;;;;;;11.77;6.07;;;;;;;9.09;100.00;100383.28;5097457;28;20040;-65
2024/02/28 00:19:12;;;;;;;12.98;5.80;;;;;;;9.11;100.00;100390.09;5097139;28;20024;-66
2024/02/28 00:21:38;;;;;;;12.23;6.70;;;;;;;9.18;99.91;100393.03;5096988;28;20096;-65
2024/02/28 00:24:04;;;;;;;18.73;7.72;;;;;;;9.19;99.71;100395.53;5097545;28;20040;-66
2024/02/28 00:26:29;;;;;;;14.85;6.63;;;;;;;9.41;98.94;100401.56;5102220;28;20054;-66
2024/02/28 00:28:55;;;;;;;15.20;6.40;;;;;;;9.56;97.70;100397.53;5100001;28;20040;-65
2024/02/28 00:31:21;;;;;;;16.08;6.25;;;;;;;9.68;96.88;100400.84;5100717;28;20031;-66
2024/02/28 00:33:47;;;;;;;9.77;6.03;;;;;;;9.61;97.00;100395.28;5100210;28;20036;-66
2024/02/28 00:36:13;;;;;;;14.02;7.10;;;;;;;9.45;97.04;100398.50;5100921;28;20035;-65
2024/02/28 00:38:38;;;;;;;17.05;7.95;;;;;;;9.46;97.38;100396.69;5094982;28;20052;-65
2024/02/28 00:41:03;;;;;;;17.35;6.93;;;;;;;9.53;97.40;100400.44;5101228;28;20081;-66
2024/02/28 00:43:29;;;;;;;15.57;6.82;;;;;;;9.68;96.39;100403.50;5100881;28;20055;-66
2024/02/28 00:45:55;;;;;;;17.00;6.60;;;;;;;9.78;95.27;100402.53;5100539;28;20036;-66
2024/02/28 00:48:22;;;;;;;13.27;6.38;;;;;;;9.79;94.35;100404.19;5093171;28;20218;-66
2024/02/28 00:50:47;;;;;;;10.85;6.35;;;;;;;9.76;94.47;100416.84;5099818;28;20055;-65
2024/02/28 00:53:13;;;;;;;14.77;6.10;;;;;;;9.84;94.62;100415.19;5100605;28;20326;-66
2024/02/28 00:55:38;;;;;;;13.60;6.50;;;;;;;9.96;94.37;100415.03;5100568;28;20122;-67
2024/02/28 00:58:04;;;;;;;11.98;5.57;;;;;;;9.89;94.42;100414.75;5100280;28;20063;-64
2024/02/28 01:00:29;;;;;;;15.65;6.03;;;;;;;9.66;95.24;100421.31;5100019;28;20118;-65
2024/02/28 01:02:55;;;;;;;15.88;6.07;;;;;;;9.41;97.31;100414.78;5100529;28;20130;-66
2024/02/28 01:05:21;;;;;;;18.17;6.82;;;;;;;9.48;96.07;100411.44;5098928;28;20028;-65
2024/02/28 01:07:46;;;;;;;15.15;6.85;;;;;;;9.60;95.34;100417.41;5100340;28;20032;-65
2024/02/28 01:10:12;;;;;;;18.42;7.15;;;;;;;9.60;95.04;100405.03;5099426;28;20066;-66
2024/02/28 01:12:37;;;;;;;12.10;7.00;;;;;;;9.59;95.53;100419.22;5100364;28;20031;-65
2024/02/28 01:15:03;;;;;;;12.05;6.50;;;;;;;9.60;95.60;100418.25;5098811;28;20195;-65
2024/02/28 01:17:29;;;;;;;19.20;9.95;;;;;;;9.67;94.97;100413.25;5099931;28;20059;-66
2024/02/28 01:19:54;;;;;;;18.15;7.05;;;;;;;9.74;93.81;100418.81;5099252;28;20032;-66
2024/02/28 01:22:20;;;;;;;15.88;7.38;;;;;;;9.75;93.39;100412.53;5099075;28;20054;-66
2024/02/28 01:24:46;;;;;;;16.27;6.65;;;;;;;9.81;91.90;100418.09;5099520;28;20048;-66
2024/02/28 01:27:11;;;;;;;18.17;7.15;;;;;;;9.71;91.22;100414.63;5099414;28;20286;-67
2024/02/28 01:29:36;;;;;;;16.48;7.30;;;;;;;9.72;90.62;100407.53;5099449;28;20199;-66
2024/02/28 01:32:02;;;;;;;14.25;6.35;;;;;;;9.48;89.60;100407.97;5099399;28;20052;-65
2024/02/28 01:34:28;;;;;;;14.65;6.93;;;;;;;8.71;88.12;100403.34;5098801;28;20032;-66
2024/02/28 01:36:53;;;;;;;16.20;7.43;;;;;;;8.54;88.99;100407.44;5089045;28;20237;-66
2024/02/28 01:39:19;;;;;;;15.68;6.53;;;;;;;8.67;90.13;100409.03;5099994;28;20042;-65
2024/02/28 01:41:54;;;;;;;16.67;7.38;;;;;;;8.78;90.88;100403.66;5093819;28;20305;-66
2024/02/28 01:44:21;;;;;;;16.95;7.00;;;;;;;8.78;91.06;100411.56;5099734;28;20406;-66
2024/02/28 01:46:46;;;;;;;15.35;6.85;;;;;;;8.83;92.46;100407.56;5098423;28;20105;-65
2024/02/28 01:49:13;;;;;;;14.30;6.55;;;;;;;8.91;92.12;100405.06;5100766;28;20118;-66
2024/02/28 01:51:39;;;;;;;15.48;6.18;;;;;;;9.02;91.58;100412.03;5093518;28;20321;-66
2024/02/28 01:54:06;;;;;;;17.95;6.65;;;;;;;9.10;90.96;100414.00;5099637;28;20125;-65
2024/02/28 01:56:31;;;;;;;15.35;6.65;;;;;;;9.19;90.67;100419.31;5098996;28;20318;-65
2024/02/28 01:58:58;;;;;;;18.08;6.95;;;;;;;9.24;90.98;100418.91;5099304;28;20046;-66
2024/02/28 02:01:24;;;;;;;17.17;6.68;;;;;;;9.29;91.00;100422.81;5098711;28;20035;-66
2024/02/28 02:03:49;;;;;;;11.48;6.22;;;;;;;9.38;90.53;100423.81;5099010;28;20059;-66
2024/02/28 02:06:15;;;;;;;15.13;8.07;;;;;;;9.45;90.74;100427.56;5095274;28;20036;-66
2024/02/28 02:08:41;;;;;;;11.48;6.10;;;;;;;9.53;90.29;100425.06;5098436;28;20043;-66
2024/02/28 02:11:06;;;;;;;11.63;5.55;;;;;;;9.55;88.91;100427.59;5098754;28;20059;-66
2024/02/28 02:13:32;;;;;;;10.95;7.00;;;;;;;9.58;88.62;100428.13;5098676;28;20043;-65
2024/02/28 02:15:58;;;;;;;16.27;7.75;;;;;;;9.62;89.07;100426.06;5099399;28;20417;-66
2024/02/28 02:18:23;;;;;;;15.13;7.20;;;;;;;9.68;88.98;100443.16;5092018;28;20345;-66
2024/02/28 02:20:56;;;;;;;12.73;5.95;;;;;;;9.70;89.18;100435.94;5098618;28;20036;-65
2024/02/28 02:23:21;;;;;;;12.05;6.43;;;;;;;9.73;88.69;100438.28;5097491;28;20338;-66
2024/02/28 02:25:48;;;;;;;12.65;6.82;;;;;;;9.71;88.82;100437.59;5099315;28;20043;-66
2024/02/28 02:28:14;;;;;;;14.10;6.30;;;;;;;9.68;88.06;100443.16;5098445;28;20095;-67
2024/02/28 02:30:45;;;;;;;11.32;6.55;;;;;;;9.65;88.41;100446.09;5099595;28;20032;-66
2024/02/28 02:33:10;;;;;;;15.80;6.03;;;;;;;9.67;88.62;100465.28;5095671;28;20063;-66
2024/02/28 02:35:36;;;;;;;12.40;6.63;;;;;;;9.69;88.54;100460.69;5099221;28;20044;-66
2024/02/28 02:38:01;;;;;;;14.20;6.97;;;;;;;9.65;88.82;100462.78;5098864;28;20048;-66
2024/02/28 02:40:27;;;;;;;12.75;6.88;;;;;;;9.65;89.56;100462.78;5098956;28;20085;-67
2024/02/28 02:42:52;;;;;;;18.95;7.35;;;;;;;9.63;89.29;100466.53;5098785;28;20207;-66
2024/02/28 02:45:18;;;;;;;19.40;7.05;;;;;;;9.58;89.59;100470.44;5098292;28;20063;-66
2024/02/28 02:47:43;;;;;;;12.75;6.45;;;;;;;9.56;89.49;100475.03;5097825;28;20028;-67
2024/02/28 02:50:10;;;;;;;14.10;7.03;;;;;;;9.59;89.41;100479.22;5097652;28;20529;-65
2024/02/28 02:52:35;;;;;;;13.50;6.78;;;;;;;9.58;89.56;100474.91;5098490;28;20230;-66
2024/02/28 02:55:01;;;;;;;14.82;7.22;;;;;;;9.54;89.12;100471.69;5096923;28;20028;-66
2024/02/28 02:57:27;;;;;;;15.27;7.28;;;;;;;9.55;89.20;100468.06;5098856;28;20068;-66
2024/02/28 02:59:52;;;;;;;13.90;7.78;;;;;;;9.39;88.78;100475.72;5097302;28;20036;-67
2024/02/28 03:02:17;;;;;;;15.45;6.90;;;;;;;9.38;89.58;100471.38;5099003;28;20036;-66
2024/02/28 03:04:43;;;;;;;18.33;7.68;;;;;;;9.38;89.01;100473.19;5090237;28;20044;-65
2024/02/28 03:07:08;;;;;;;26.23;10.45;;;;;;;9.44;89.06;100475.28;5098092;28;20036;-66
2024/02/28 03:09:34;;;;;;;18.33;8.80;;;;;;;9.45;88.61;100475.16;5097106;28;20032;-66
2024/02/28 03:11:59;;;;;;;14.75;7.18;;;;;;;9.47;87.59;100475.03;5097947;28;20222;-65
2024/02/28 03:14:27;;;;;;;20.45;9.40;;;;;;;9.37;88.58;100475.00;5098195;28;20066;-65
2024/02/28 03:16:53;;;;;;;22.48;10.02;;;;;;;9.19;88.85;100481.88;5097310;28;20085;-66
2024/02/28 03:19:18;;;;;;;23.52;11.30;;;;;;;9.07;89.11;100483.81;5097657;28;20099;-66
2024/02/28 03:21:44;;;;;;;20.67;10.65;;;;;;;8.86;89.78;100477.75;5096554;28;20040;-65
2024/02/28 03:24:10;;;;;;;27.42;9.50;;;;;;;8.95;89.82;100479.59;5097330;28;20059;-65
2024/02/28 03:26:35;;;;;;;18.90;10.05;;;;;;;9.01;89.99;100479.06;5096936;28;20127;-65
2024/02/28 03:29:01;;;;;;;21.17;9.15;;;;;;;9.06;90.05;100482.13;5097802;28;20031;-66
2024/02/28 03:31:27;;;;;;;23.38;9.93;;;;;;;9.10;89.66;100475.59;5095594;28;20064;-66
2024/02/28 03:33:52;;;;;;;19.60;9.48;;;;;;;9.03;88.23;100482.41;5097621;28;20043;-66
2024/02/28 03:36:18;;;;;;;26.45;10.00;;;;;;;8.97;89.33;100480.28;5095776;28;20044;-66
2024/02/28 03:38:43;;;;;;;23.70;9.80;;;;;;;9.00;89.29;100480.03;5097452;28;20132;-64
2024/02/28 03:41:09;;;;;;;20.42;9.40;;;;;;;8.88;88.01;100484.56;5088719;28;20032;-65
2024/02/28 03:43:35;;;;;;;18.48;9.23;;;;;;;8.78;86.08;100482.88;5097275;28;20372;-65
2024/02/28 03:46:00;;;;;;;27.08;11.70;;;;;;;8.80;86.52;100476.47;5096741;28;20325;-66
2024/02/28 03:48:26;;;;;;;19.33;9.98;;;;;;;8.59;85.05;100479.16;5096925;28;20039;-65
2024/02/28 03:50:51;;;;;;;20.95;8.02;;;;;;;8.42;83.20;100479.78;5097447;28;20042;-66
2024/02/28 03:53:17;;;;;;;24.40;8.50;;;;;;;8.08;84.09;100478.22;5096638;28;20220;-66
2024/02/28 03:55:46;;;;;;;23.08;8.98;;;;;;;8.07;88.19;100474.75;5092928;28;20346;-64
2024/02/28 03:58:11;;;;;;;17.02;7.07;;;;;;;7.98;89.60;100475.53;5096578;28;20042;-66
2024/02/28 04:00:37;;;;;;;16.98;7.70;;;;;;;7.91;88.36;100483.13;5096694;28;20043;-66
2024/02/28 04:03:03;;;;;;;30.13;9.27;;;;;;;7.87;88.29;100478.22;5096870;28;20036;-66
2024/02/28 04:05:29;;;;;;;25.75;8.88;;;;;;;7.90;88.02;100493.78;5097234;28;20269;-66
2024/02/28 04:07:54;;;;;;;18.88;7.80;;;;;;;7.91;87.34;100493.66;5096406;28;20032;-65
2024/02/28 04:10:20;;;;;;;22.35;8.20;;;;;;;7.91;86.00;100493.66;5097328;28;20105;-66
2024/02/28 04:12:45;;;;;;;19.95;7.65;;;;;;;7.90;85.00;100497.25;5095668;28;20137;-65
2024/02/28 04:15:14;;;;;;;25.58;8.48;;;;;;;7.80;88.24;100498.97;5097501;28;20032;-64
2024/02/28 04:17:40;;;;;;;19.30;9.32;;;;;;;7.83;90.77;100495.25;5095104;28;20085;-64
2024/02/28 04:20:10;;;;;;;22.88;9.23;;;;;;;7.92;91.37;100507.69;5096645;28;20215;-67
2024/02/28 04:22:36;;;;;;;22.85;9.70;;;;;;;7.87;92.02;100501.94;5096611;28;20055;-66
2024/02/28 04:25:01;;;;;;;28.40;14.68;;;;;;;7.64;94.43;100499.41;5096700;28;20072;-66
2024/02/28 04:27:27;;;;;;;26.25;14.05;;;;;;;7.78;95.18;100494.78;5092961;28;20334;-67
2024/02/28 04:29:52;;;;;;;22.80;11.00;;;;;;;7.98;94.43;100497.47;5097045;28;20424;-66
2024/02/28 04:32:17;;;;;;;24.42;10.65;;;;;;;8.12;93.30;100500.75;5097955;28;20067;-66
2024/02/28 04:34:43;;;;;;;14.55;9.35;;;;;;;8.10;92.22;100506.16;5096877;28;20256;-66
2024/02/28 04:37:08;;;;;;;24.80;11.25;;;;;;;7.80;93.77;100500.78;5096574;28;20047;-65
2024/02/28 04:39:34;;;;;;;27.50;13.10;;;;;;;7.82;95.29;100501.50;5097530;28;20036;-65
2024/02/28 04:41:59;;;;;;;30.55;11.85;;;;;;;8.00;94.15;100500.81;5097215;28;20051;-65
2024/02/28 04:44:25;;;;;;;25.17;10.27;;;;;;;8.13;93.84;100502.44;5095163;28;20106;-66
2024/02/28 04:46:50;;;;;;;21.25;7.55;;;;;;;8.13;91.73;100490.06;5096577;28;20051;-65
2024/02/28 04:49:16;;;;;;;14.65;7.40;;;;;;;8.14;90.66;100489.09;5096560;28;20217;-66
2024/02/28 04:51:41;;;;;;;15.50;7.53;;;;;;;8.15;88.98;100489.94;5096585;28;20109;-65
2024/02/28 04:54:06;;;;;;;16.85;6.97;;;;;;;8.19;88.43;100491.38;5096871;28;20036;-64
2024/02/28 04:56:32;;;;;;;19.23;8.07;;;;;;;8.16;88.47;100508.28;5097012;28;20044;-67
2024/02/28 04:58:57;;;;;;;15.45;9.23;;;;;;;8.07;92.02;100505.56;5096979;28;20031;-66
2024/02/28 05:01:23;;;;;;;19.15;9.93;;;;;;;7.74;94.19;100503.91;5096780;28;20256;-66
2024/02/28 05:03:48;;;;;;;18.10;8.30;;;;;;;7.80;94.97;100508.69;5096499;28;20043;-66
2024/02/28 05:06:14;;;;;;;18.52;10.02;;;;;;;7.89;95.23;100519.31;5096422;28;20092;-65
2024/02/28 05:08:39;;;;;;;21.55;9.75;;;;;;;8.11;94.52;100525.47;5096093;28;20043;-65
2024/02/28 05:11:05;;;;;;;18.88;9.48;;;;;;;8.21;93.98;100529.00;5097494;28;20396;-66
2024/02/28 05:13:30;;;;;;;23.60;8.88;;;;;;;8.32;93.95;100515.75;5099252;28;20043;-65
2024/02/28 05:15:56;;;;;;;47.95;11.57;;;;;;;8.39;92.64;100516.13;5098892;28;20269;-66
2024/02/28 05:18:22;;;;;;;20.08;10.07;;;;;;;8.43;91.93;100521.03;5099448;28;20032;-65
2024/02/28 05:20:47;;;;;;;23.80;9.48;;;;;;;8.39;90.80;100519.63;5099040;28;20051;-65
2024/02/28 05:23:13;;;;;;;24.42;11.02;;;;;;;8.22;92.79;100522.75;5099518;28;20040;-65
2024/02/28 05:25:38;;;;;;;26.77;9.82;;;;;;;8.12;94.15;100517.41;5098777;28;20036;-65
2024/02/28 05:28:04;;;;;;;19.60;10.00;;;;;;;8.09;91.02;100517.69;5098990;28;20032;-66
2024/02/28 05:30:30;;;;;;;17.48;9.20;;;;;;;8.02;88.24;100524.41;5098667;28;20334;-66
2024/02/28 05:32:55;;;;;;;23.13;9.40;;;;;;;8.15;89.85;100532.16;5098653;28;20028;-65
2024/02/28 05:35:21;;;;;;;22.77;9.82;;;;;;;8.00;92.81;100528.97;5098817;28;20257;-66
2024/02/28 05:37:46;;;;;;;17.20;9.00;;;;;;;8.14;89.60;100544.50;5098941;28;20133;-65
2024/02/28 05:40:12;;;;;;;25.75;9.23;;;;;;;8.25;91.28;100548.88;5099245;28;20036;-66
2024/02/28 05:42:39;;;;;;;17.77;9.40;;;;;;;8.26;90.30;100545.28;5098644;28;20144;-66
2024/02/28 05:45:06;;;;;;;26.75;12.63;;;;;;;8.33;92.49;100554.44;5098252;28;20040;-65
2024/02/28 05:47:31;;;;;;;24.52;10.73;;;;;;;8.36;90.94;100558.63;5098601;28;20047;-65
2024/02/28 05:49:58;;;;;;;26.27;9.13;;;;;;;8.41;90.53;100562.53;5098665;28;20265;-65
2024/02/28 05:52:25;;;;;;;34.13;12.52;;;;;;;8.43;89.64;100551.88;5098891;28;20333;-67
2024/02/28 05:54:51;;;;;;;35.60;12.35;;;;;;;8.27;92.49;100563.63;5097875;28;20028;-65
2024/02/28 05:57:16;;;;;;;32.50;12.77;;;;;;;8.50;92.97;100561.78;5098622;28;20040;-65
2024/02/28 05:59:42;;;;;;;29.63;13.00;;;;;;;8.49;93.45;100556.63;5098118;28;20333;-65
2024/02/28 06:02:08;;;;;;;30.60;12.57;;;;;;;8.52;94.24;100567.75;5099011;28;20032;-65
2024/02/28 06:04:33;;;;;;;33.45;12.27;;;;;;;8.57;95.27;100562.09;5098163;28;20044;-66
2024/02/28 06:06:59;;;;;;;32.17;13.45;;;;;;;8.66;94.98;100561.31;5099269;28;20211;-66
2024/02/28 06:09:27;;;;;;;41.22;13.77;;;;;;;8.70;94.98;100573.28;5099402;28;20031;-65
2024/02/28 06:11:53;;;;;;;28.65;13.13;;;;;;;8.82;95.10;100579.34;5099471;28;20028;-67
2024/02/28 06:14:18;;;;;;;30.33;13.15;;;;;;;8.84;94.62;100572.97;5099020;28;20028;-66
2024/02/28 06:16:47;;;;;;;28.77;11.95;;;;;;;8.63;95.33;100580.91;5098126;28;20028;-66
2024/02/28 06:19:12;;;;;;;36.30;14.88;;;;;;;8.66;95.82;100578.97;5098070;28;20044;-65
2024/02/28 06:21:37;;;;;;;28.92;11.90;;;;;;;8.48;96.99;100590.09;5098127;28;20088;-66
2024/02/28 06:24:04;;;;;;;28.95;14.27;;;;;;;8.51;97.73;100587.19;5097982;28;20108;-66
2024/02/28 06:26:31;;;;;;;35.22;15.10;;;;;;;8.59;97.11;100583.91;5098787;28;20256;-67
2024/02/28 06:29:01;;;;;;;30.08;14.38;;;;;;;8.53;97.53;100590.56;5097005;28;20035;-66
2024/02/28 06:31:29;;;;;;;28.88;14.73;;;;;;;8.64;98.13;100587.00;5097691;28;20036;-66
2024/02/28 06:33:55;;;;;;;31.50;13.75;;;;;;;8.71;98.55;100587.34;5097784;28;20028;-65
2024/02/28 06:36:20;;;;;;;23.67;12.52;;;;;;;8.81;99.50;100582.94;5097414;28;20567;-67
2024/02/28 06:38:46;;;;;;;23.33;10.70;;;;;;;8.71;100.00;100589.97;5096660;28;20047;-66
2024/02/28 06:41:11;;;;;;;20.38;9.32;;;;;;;8.82;100.00;100590.75;5095584;28;20051;-65
2024/02/28 06:43:37;;;;;;;22.23;9.43;;;;;;;8.92;100.00;100586.34;5097587;28;20210;-65
2024/02/28 06:46:02;;;;;;;21.42;9.70;;;;;;;9.10;100.00;100598.94;5097147;28;20043;-66
2024/02/28 06:48:29;;;;;;;27.80;9.93;;;;;;;9.27;100.00;100590.41;5096944;28;20349;-65
2024/02/28 06:50:56;;;;;;;24.60;9.35;;;;;;;9.29;100.00;100593.75;5096307;28;20115;-65
2024/02/28 06:53:21;;;;;;;22.02;10.43;;;;;;;9.45;100.00;100595.91;5096454;28;20373;-64
2024/02/28 06:55:48;;;;;;;26.60;10.10;;;;;;;9.49;100.00;100602.63;5095356;28;20036;-65
2024/02/28 06:58:14;;;;;;;25.48;10.25;;;;;;;9.63;100.00;100609.34;5097734;28;20039;-65
2024/02/28 07:00:40;;;;;;;27.50;11.05;;;;;;;9.72;100.00;100606.72;5095762;28;20249;-66
2024/02/28 07:03:05;;;;;;;34.13;12.07;;;;;;;9.75;100.00;100608.25;5097228;28;20047;-66
2024/02/28 07:05:31;;;;;;;31.95;11.93;;;;;;;9.71;100.00;100606.84;5096133;28;20027;-67
2024/02/28 07:07:56;;;;;;;29.42;10.10;;;;;;;9.76;100.00;100610.75;5096916;28;20118;-67
2024/02/28 07:10:23;;;;;;;21.95;9.73;;;;;;;9.83;100.00;100608.41;5096653;28;20038;-66
2024/02/28 07:12:48;;;;;;;33.35;11.82;;;;;;;9.84;100.00;100610.09;5097027;28;20036;-66
2024/02/28 07:15:14;;;;;;;28.10;10.90;;;;;;;9.89;100.00;100621.94;5096592;28;20035;-66
2024/02/28 07:17:39;;;;;;;26.50;11.13;;;;;;;9.79;100.00;100617.59;5096937;28;20036;-65
2024/02/28 07:20:06;;;;;;;30.95;11.40;;;;;;;9.64;100.00;100608.38;5096127;28;20454;-66
2024/02/28 07:22:32;;;;;;;25.80;12.18;;;;;;;9.66;100.00;100617.84;5095906;28;20242;-64
2024/02/28 07:24:57;;;;;;;26.55;11.07;;;;;;;9.71;100.00;100618.25;5096219;28;20042;-65
2024/02/28 07:27:26;;;;;;;37.10;12.73;;;;;;;9.55;100.00;100612.66;5096127;28;20040;-65
2024/02/28 07:29:51;;;;;;;30.10;11.65;;;;;;;9.51;100.00;100617.38;5096502;28;20103;-65
2024/02/28 07:32:17;;;;;;;31.58;12.55;;;;;;;9.57;100.00;100619.47;5095588;28;20040;-66
2024/02/28 07:34:42;;;;;;;31.33;12.40;;;;;;;9.81;100.00;100620.94;5096979;28;20020;-67
2024/02/28 07:37:08;;;;;;;27.55;10.85;;;;;;;10.03;100.00;100625.16;5095855;28;20044;-64
2024/02/28 07:39:33;;;;;;;31.15;11.85;;;;;;;9.79;100.00;100625.53;5097695;28;20027;-66
2024/02/28 07:41:59;;;;;;;27.10;12.35;;;;;;;9.96;100.00;100629.31;5096339;28;20370;-65
2024/02/28 07:44:25;;;;;;;27.58;12.18;;;;;;;10.07;100.00;100619.44;5096785;28;20329;-66
2024/02/28 07:46:51;;;;;;;34.13;12.68;;;;;;;10.29;100.00;100628.13;5096235;28;20107;-66
2024/02/28 07:49:16;;;;;;;30.58;12.50;;;;;;;10.43;100.00;100619.81;5096876;28;20318;-67
2024/02/28 07:51:42;;;;;;;27.73;13.18;;;;;;;10.57;100.00;100622.03;5096058;28;20032;-65
2024/02/28 07:54:07;;;;;;;29.95;12.48;;;;;;;10.72;99.44;100614.50;5093499;28;20043;-65
2024/02/28 07:56:33;;;;;;;28.88;11.32;;;;;;;10.87;98.10;100616.53;5091262;28;20040;-66
2024/02/28 07:58:58;;;;;;;26.35;10.85;;;;;;;10.97;97.60;100602.44;5092498;28;20039;-67
2024/02/28 08:01:24;;;;;;;25.98;12.57;;;;;;;11.23;98.24;100610.59;5095835;28;20043;-67
2024/02/28 08:03:49;;;;;;;26.52;10.52;;;;;;;11.37;96.69;100602.16;5095634;28;20353;-65
2024/02/28 08:06:16;;;;;;;27.33;11.07;;;;;;;11.28;95.98;100595.06;5095773;28;20070;-65
2024/02/28 08:08:45;;;;;;;24.45;10.85;;;;;;;11.47;95.40;100600.31;5095884;28;20184;-66
2024/02/28 08:11:11;;;;;;;27.02;11.68;;;;;;;11.52;95.43;100593.59;5095495;28;20055;-66
2024/02/28 08:13:36;;;;;;;31.95;12.05;;;;;;;11.71;94.27;100603.28;5095152;28;20020;-66
2024/02/28 08:16:02;;;;;;;25.58;12.40;;;;;;;11.89;93.42;100599.84;5093796;28;20039;-65
2024/02/28 08:18:28;;;;;;;24.38;12.27;;;;;;;11.98;92.96;100599.78;5096936;28;20032;-65
2024/02/28 08:20:57;;;;;;;27.23;12.48;;;;;;;12.10;92.93;100597.75;5095258;28;20235;-66
2024/02/28 08:23:23;;;;;;;26.98;11.65;;;;;;;11.99;92.41;100597.97;5096880;28;20111;-66
2024/02/28 08:25:48;;;;;;;23.35;10.80;;;;;;;12.25;92.42;100592.75;5095336;28;20310;-65
2024/02/28 08:28:14;;;;;;;23.20;10.75;;;;;;;12.02;93.00;100593.19;5096093;28;20046;-65
2024/02/28 08:30:39;;;;;;;24.80;10.80;;;;;;;11.50;95.36;100589.44;5096384;28;20095;-65
2024/02/28 08:33:07;;;;;;;26.35;11.73;;;;;;;11.81;95.39;100585.50;5095936;28;20028;-67
2024/02/28 08:35:32;;;;;;;27.65;11.88;;;;;;;11.90;95.19;100590.91;5095642;28;20317;-65
2024/02/28 08:37:58;;;;;;;20.77;10.13;;;;;;;12.06;94.04;100583.94;5095204;28;20223;-65
2024/02/28 08:40:23;;;;;;;25.50;11.60;;;;;;;12.13;93.71;100582.34;5095655;28;20039;-67
2024/02/28 08:42:52;;;;;;;21.92;9.88;;;;;;;12.12;93.52;100588.63;5095253;28;20042;-65
2024/02/28 08:45:18;;;;;;;20.10;10.18;;;;;;;12.14;94.13;100577.88;5095824;28;20104;-66
2024/02/28 08:47:44;;;;;;;22.08;10.20;;;;;;;12.10;93.60;100573.84;5099421;28;20042;-66
2024/02/28 08:50:10;;;;;;;19.05;10.00;;;;;;;12.29;92.76;100588.78;5100173;28;20083;-66
2024/02/28 08:52:36;;;;;;;19.80;9.07;;;;;;;12.49;93.09;100582.34;5098345;28;20046;-67
2024/02/28 08:55:01;;;;;;;21.02;10.25;;;;;;;12.62;92.51;100587.25;5100677;28;20080;-65
2024/02/28 08:57:27;;;;;;;24.50;9.30;;;;;;;12.53;92.72;100588.19;5099560;28;20032;-65
2024/02/28 08:59:53;;;;;;;24.15;9.57;;;;;;;12.75;91.99;100585.03;5099868;28;20255;-66
2024/02/28 09:02:19;;;;;;;21.48;9.77;;;;;;;12.70;90.99;100588.16;5098536;28;20086;-67
2024/02/28 09:04:45;;;;;;;26.65;11.52;;;;;;;12.89;91.11;100583.63;5099390;28;20058;-67
2024/02/28 09:07:11;;;;;;;23.65;10.65;;;;;;;12.67;91.21;100591.13;5099350;28;20028;-65
2024/02/28 09:09:41;;;;;;;25.90;9.85;;;;;;;12.76;91.07;100592.03;5099635;28;20035;-66
2024/02/28 09:12:07;;;;;;;23.33;10.63;;;;;;;12.94;91.95;100587.50;5098375;28;20372;-67
2024/02/28 09:14:32;;;;;;;21.83;9.93;;;;;;;13.08;91.54;100589.56;5098516;28;20115;-66
2024/02/28 09:17:03;;;;;;;25.38;11.43;;;;;;;13.17;90.77;100582.50;5099185;28;20044;-65
2024/02/28 09:19:29;;;;;;;25.98;11.20;;;;;;;13.15;90.90;100580.97;5098654;28;20036;-66
2024/02/28 09:21:54;;;;;;;22.08;10.18;;;;;;;13.20;89.31;100584.00;5098589;28;20032;-66
2024/02/28 09:24:20;;;;;;;26.95;10.85;;;;;;;12.98;90.02;100580.88;5097983;28;20042;-66
2024/02/28 09:26:45;;;;;;;22.42;10.13;;;;;;;13.09;89.27;100572.63;5098488;28;20043;-67
2024/02/28 09:29:11;;;;;;;22.67;9.85;;;;;;;13.18;89.00;100565.53;5098260;28;20023;-66
2024/02/28 09:31:36;;;;;;;23.23;11.40;;;;;;;13.31;89.57;100567.78;5099569;28;20044;-65
2024/02/28 09:34:07;;;;;;;21.30;11.23;;;;;;;13.43;88.64;100561.16;5097854;28;20047;-66
2024/02/28 09:36:33;;;;;;;18.75;10.07;;;;;;;13.51;88.61;100566.53;5099516;28;20048;-65
2024/02/28 09:38:58;;;;;;;25.23;11.10;;;;;;;13.20;89.01;100562.72;5098275;28;20032;-66
2024/02/28 09:41:26;;;;;;;19.73;10.43;;;;;;;13.11;88.67;100562.66;5098958;28;20313;-66
2024/02/28 09:43:52;;;;;;;20.08;9.45;;;;;;;13.06;89.26;100556.16;5098280;28;20250;-67
2024/02/28 09:46:18;;;;;;;21.52;10.18;;;;;;;12.96;90.71;100550.94;5098839;28;20322;-65
2024/02/28 09:48:49;;;;;;;28.23;11.60;;;;;;;12.86;91.65;100547.56;5098704;28;20063;-66
2024/02/28 09:51:16;;;;;;;25.58;10.65;;;;;;;12.96;90.52;100548.28;5098650;28;20225;-66
2024/02/28 09:53:42;;;;;;;23.92;10.73;;;;;;;13.00;90.26;100544.31;5099084;28;20318;-65
2024/02/28 09:56:07;;;;;;;25.83;10.73;;;;;;;13.04;91.07;100543.00;5098125;28;20040;-65
2024/02/28 09:58:34;;;;;;;25.27;10.27;;;;;;;13.03;92.67;100540.50;5096109;28;20325;-65
2024/02/28 10:01:03;;;;;;;19.15;9.55;;;;;;;12.76;92.38;100533.56;5097659;28;20032;-65
2024/02/28 10:03:30;;;;;;;22.92;9.55;;;;;;;12.63;94.20;100525.16;5098168;28;20042;-66
2024/02/28 10:05:55;;;;;;;23.80;10.80;;;;;;;12.54;93.68;100526.09;5098690;28;20115;-66
2024/02/28 10:08:21;;;;;;;21.02;11.13;;;;;;;12.75;92.39;100518.59;5099745;28;20044;-66
2024/02/28 10:10:54;;;;;;;23.88;10.27;;;;;;;12.94;92.02;100510.41;5095910;28;20059;-67
2024/02/28 10:13:20;;;;;;;19.70;10.52;;;;;;;13.10;93.72;100504.31;5098352;28;20028;-67
2024/02/28 10:15:45;;;;;;;19.60;9.82;;;;;;;13.27;90.38;100508.75;5097233;28;20056;-65
2024/02/28 10:18:11;;;;;;;21.23;9.82;;;;;;;13.41;91.04;100508.13;5098769;28;20360;-65
2024/02/28 10:20:36;;;;;;;16.13;9.18;;;;;;;13.08;90.52;100507.13;5097144;28;20544;-66
2024/02/28 10:23:06;;;;;;;21.10;9.82;;;;;;;13.08;91.97;100503.66;5098393;28;20039;-67
2024/02/28 10:25:32;;;;;;;20.80;10.05;;;;;;;13.17;92.06;100494.75;5097035;28;20365;-65
2024/02/28 10:28:01;;;;;;;19.67;9.60;;;;;;;13.07;91.06;100494.84;5097478;28;20435;-66
2024/02/28 10:30:27;;;;;;;19.08;9.07;;;;;;;13.20;90.63;100496.25;5096296;28;20384;-66
2024/02/28 10:32:53;;;;;;;21.10;9.20;;;;;;;13.34;89.50;100485.00;5097395;28;20437;-65
2024/02/28 10:35:25;;;;;;;18.90;10.30;;;;;;;13.50;90.50;100485.03;5096473;28;20085;-66
2024/02/28 10:37:52;;;;;;;22.13;9.63;;;;;;;13.63;89.23;100481.94;5097050;28;20036;-66
2024/02/28 10:40:19;;;;;;;20.00;9.63;;;;;;;13.73;89.85;100475.47;5097733;28;20225;-65
2024/02/28 10:42:46;;;;;;;20.92;10.20;;;;;;;13.84;88.35;100478.78;5097393;28;20043;-67
2024/02/28 10:45:12;;;;;;;17.88;10.13;;;;;;;13.76;89.80;100476.13;5097387;28;20036;-66
2024/02/28 10:47:41;;;;;;;23.58;11.73;;;;;;;13.64;89.42;100479.09;5096877;28;20042;-65
2024/02/28 10:50:07;;;;;;;21.45;11.13;;;;;;;13.71;88.76;100468.63;5098029;28;20024;-67
2024/02/28 10:52:41;;;;;;;20.27;10.75;;;;;;;13.46;89.65;100464.25;5095689;28;20387;-66
2024/02/28 10:55:08;;;;;;;23.48;10.80;;;;;;;13.46;89.81;100454.44;5098748;28;20036;-66
2024/02/28 10:57:36;;;;;;;21.58;11.32;;;;;;;13.63;88.98;100455.31;5096002;28;20032;-66
2024/02/28 11:00:04;;;;;;;19.30;10.40;;;;;;;13.77;89.06;100448.50;5097488;28;20032;-67
2024/02/28 11:02:31;;;;;;;19.83;10.82;;;;;;;13.81;87.74;100449.84;5095891;28;20081;-66
2024/02/28 11:04:58;;;;;;;25.25;11.95;;;;;;;13.73;89.58;100443.53;5097071;28;20028;-67
2024/02/28 11:07:24;;;;;;;20.20;11.55;;;;;;;13.83;89.20;100437.19;5095680;28;20032;-66
2024/02/28 11:09:55;;;;;;;26.27;11.80;;;;;;;13.79;88.26;100433.22;5096505;28;20032;-67
2024/02/28 11:12:28;;;;;;;46.28;13.40;;;;;;;13.89;87.69;100428.56;5096156;28;20032;-65